createdAt,value
2018-09-25T00:02:02.702Z,5.83
2018-09-25T00:04:35.587Z,5.84
2018-09-25T00:07:08.600Z,5.81
2018-09-25T00:09:41.476Z,5.81
2018-09-25T00:12:14.347Z,5.83
2018-09-25T00:14:47.081Z,5.82
2018-09-25T00:17:21.170Z,5.82
2018-09-25T00:22:45.760Z,5.77
2018-09-25T00:25:19.146Z,5.75
2018-09-25T00:27:54.885Z,5.75
2018-09-25T00:30:27.852Z,5.73
2018-09-25T00:33:00.923Z,5.63
2018-09-25T00:35:34.290Z,5.55
2018-09-25T00:38:07.552Z,5.48
2018-09-25T00:40:40.516Z,5.40
2018-09-25T00:43:13.581Z,5.38
2018-09-25T00:45:48.163Z,5.39
2018-09-25T00:48:21.111Z,5.41
2018-09-25T00:50:56.815Z,5.36
2018-09-25T00:53:29.668Z,5.29
2018-09-25T00:56:03.922Z,5.21
2018-09-25T00:58:37.095Z,5.16
2018-09-25T01:01:10.064Z,5.12
2018-09-25T01:03:43.124Z,5.12
2018-09-25T01:06:15.963Z,5.11
2018-09-25T01:08:48.844Z,5.13
2018-09-25T01:11:21.831Z,5.13
2018-09-25T01:13:55.985Z,5.13
2018-09-25T01:16:28.891Z,5.14
2018-09-25T01:19:02.335Z,5.15
2018-09-25T01:21:35.587Z,5.20
2018-09-25T01:24:08.803Z,5.21
2018-09-25T01:26:42.294Z,5.22
2018-09-25T01:29:16.413Z,5.21
2018-09-25T01:31:49.608Z,5.19
2018-09-25T01:34:22.445Z,5.22
2018-09-25T01:36:55.453Z,5.22
2018-09-25T01:39:28.337Z,5.22
2018-09-25T01:42:01.410Z,5.17
2018-09-25T01:44:34.351Z,5.18
2018-09-25T01:47:07.453Z,5.13
2018-09-25T01:49:40.326Z,5.13
2018-09-25T01:52:13.573Z,5.10
2018-09-25T01:54:46.606Z,5.05
2018-09-25T01:57:19.692Z,5.03
2018-09-25T01:59:52.588Z,5.02
2018-09-25T02:02:25.396Z,4.98
2018-09-25T02:04:58.261Z,4.95
2018-09-25T02:07:31.403Z,4.93
2018-09-25T02:10:05.104Z,4.89
2018-09-25T02:12:38.502Z,4.85
2018-09-25T02:15:11.805Z,4.82
2018-09-25T02:17:44.838Z,4.80
2018-09-25T02:20:17.738Z,4.80
2018-09-25T02:22:51.667Z,4.77
2018-09-25T02:25:24.553Z,4.70
2018-09-25T02:27:57.430Z,4.67
2018-09-25T02:30:30.412Z,4.65
2018-09-25T02:33:03.490Z,4.63
2018-09-25T02:35:36.409Z,4.56
2018-09-25T02:38:09.495Z,4.54
2018-09-25T02:40:42.400Z,4.53
2018-09-25T02:43:15.479Z,4.51
2018-09-25T02:45:48.651Z,4.54
2018-09-25T02:48:21.611Z,4.54
2018-09-25T02:50:54.487Z,4.49
2018-09-25T02:53:27.468Z,4.49
2018-09-25T02:56:00.385Z,4.49
2018-09-25T02:58:33.448Z,4.52
2018-09-25T03:01:06.494Z,4.53
2018-09-25T03:03:39.576Z,4.52
2018-09-25T03:06:12.464Z,4.53
2018-09-25T03:08:45.523Z,4.55
2018-09-25T03:11:18.407Z,4.54
2018-09-25T03:13:51.345Z,4.56
2018-09-25T03:16:24.172Z,4.55
2018-09-25T03:18:57.079Z,4.56
2018-09-25T03:21:30.973Z,4.56
2018-09-25T03:24:04.754Z,4.56
2018-09-25T03:26:37.704Z,4.58
2018-09-25T03:29:11.437Z,4.63
2018-09-25T03:31:44.232Z,4.63
2018-09-25T03:34:17.163Z,4.61
2018-09-25T03:36:50.138Z,4.62
2018-09-25T03:39:22.998Z,4.62
2018-09-25T03:41:55.912Z,4.63
2018-09-25T03:44:28.991Z,4.68
2018-09-25T03:47:01.791Z,4.76
2018-09-25T03:49:34.771Z,4.81
2018-09-25T03:52:07.715Z,4.87
2018-09-25T03:54:40.730Z,4.95
2018-09-25T03:57:13.768Z,5.02
2018-09-25T03:59:46.807Z,5.06
2018-09-25T04:02:19.795Z,5.06
2018-09-25T04:04:52.764Z,5.07
2018-09-25T04:07:25.662Z,5.06
2018-09-25T04:09:58.605Z,5.06
2018-09-25T04:12:31.619Z,5.09
2018-09-25T04:15:04.835Z,5.13
2018-09-25T04:17:37.746Z,5.15
2018-09-25T04:20:10.676Z,5.16
2018-09-25T04:22:43.731Z,5.18
2018-09-25T04:25:16.593Z,5.18
2018-09-25T04:27:49.431Z,5.18
2018-09-25T04:30:22.391Z,5.22
2018-09-25T04:32:55.734Z,5.21
2018-09-25T04:35:28.602Z,5.21
2018-09-25T04:38:01.848Z,5.23
2018-09-25T04:40:34.773Z,5.24
2018-09-25T04:43:07.916Z,5.24
2018-09-25T04:45:40.880Z,5.26
2018-09-25T04:48:14.156Z,5.23
2018-09-25T04:50:47.398Z,5.22
2018-09-25T04:53:20.483Z,5.17
2018-09-25T04:55:53.494Z,5.11
2018-09-25T04:58:26.627Z,5.05
2018-09-25T05:01:00.176Z,5.03
2018-09-25T05:03:33.465Z,5.00
2018-09-25T05:06:14.693Z,4.98
2018-09-25T05:08:47.745Z,4.95
2018-09-25T05:11:28.140Z,4.95
2018-09-25T05:14:03.575Z,5.00
2018-09-25T05:16:38.768Z,5.04
2018-09-25T05:19:13.314Z,5.11
2018-09-25T05:21:46.498Z,5.19
2018-09-25T05:24:23.727Z,5.28
2018-09-25T05:26:57.678Z,5.35
2018-09-25T05:29:33.164Z,5.46
2018-09-25T05:32:06.810Z,5.52
2018-09-25T05:34:42.172Z,5.57
2018-09-25T05:37:17.013Z,5.61
2018-09-25T05:39:51.257Z,5.68
2018-09-25T05:42:24.219Z,5.76
2018-09-25T05:44:58.620Z,5.81
2018-09-25T05:47:32.751Z,5.84
2018-09-25T05:50:10.798Z,5.82
2018-09-25T05:52:47.645Z,5.79
2018-09-25T05:55:22.237Z,5.79
2018-09-25T05:57:55.392Z,5.81
2018-09-25T06:00:29.760Z,5.88
2018-09-25T06:03:08.146Z,5.95
2018-09-25T06:05:44.422Z,6.04
2018-09-25T06:11:14.091Z,6.15
2018-09-25T06:13:47.854Z,6.18
2018-09-25T06:16:38.464Z,6.22
2018-09-25T06:19:13.155Z,6.29
2018-09-25T06:21:49.893Z,6.35
2018-09-25T06:24:22.938Z,6.36
2018-09-25T06:26:55.889Z,6.41
2018-09-25T06:29:28.776Z,6.44
2018-09-25T06:32:02.802Z,6.52
2018-09-25T06:34:46.028Z,6.63
2018-09-25T06:37:20.673Z,6.78
2018-09-25T06:39:55.996Z,6.85
2018-09-25T06:42:32.564Z,7.00
2018-09-25T06:45:07.313Z,7.13
2018-09-25T06:47:40.377Z,7.32
2018-09-25T06:50:14.556Z,7.42
2018-09-25T06:53:02.845Z,7.53
2018-09-25T06:55:44.151Z,7.79
2018-09-25T06:58:17.657Z,8.00
2018-09-25T07:00:50.705Z,8.21
2018-09-25T07:03:25.891Z,8.47
2018-09-25T07:05:59.207Z,8.57
2018-09-25T07:08:32.200Z,8.81
2018-09-25T07:11:05.511Z,9.21
2018-09-25T07:13:39.004Z,9.48
2018-09-25T07:16:12.447Z,9.60
2018-09-25T07:18:45.656Z,9.68
2018-09-25T07:21:18.943Z,10.00
2018-09-25T07:23:51.961Z,10.12
2018-09-25T07:26:24.814Z,10.39
2018-09-25T07:28:58.925Z,10.74
2018-09-25T07:31:32.098Z,11.11
2018-09-25T07:34:08.260Z,11.26
2018-09-25T07:36:42.833Z,11.51
2018-09-25T07:39:23.292Z,11.41
2018-09-25T07:41:57.814Z,11.55
2018-09-25T07:44:31.051Z,11.58
2018-09-25T07:47:04.373Z,11.95
2018-09-25T07:49:37.771Z,12.17
2018-09-25T07:52:11.131Z,12.30
2018-09-25T07:54:56.038Z,12.16
2018-09-25T07:57:32.549Z,12.43
2018-09-25T08:00:07.182Z,12.54
2018-09-25T08:02:41.676Z,12.42
2018-09-25T08:05:17.638Z,12.58
2018-09-25T08:07:52.842Z,13.22
2018-09-25T08:10:27.857Z,13.77
2018-09-25T08:13:03.322Z,13.60
2018-09-25T08:15:37.803Z,13.62
2018-09-25T08:18:11.958Z,13.58
2018-09-25T08:20:48.984Z,13.96
2018-09-25T08:23:24.135Z,14.19
2018-09-25T08:26:02.313Z,14.07
2018-09-25T08:28:36.788Z,14.28
2018-09-25T08:31:15.358Z,14.47
2018-09-25T08:33:54.142Z,14.53
2018-09-25T08:36:28.343Z,14.21
2018-09-25T08:39:01.715Z,14.54
2018-09-25T08:41:35.115Z,14.53
2018-09-25T08:44:10.117Z,14.17
2018-09-25T08:46:43.970Z,14.49
2018-09-25T08:49:17.433Z,14.69
2018-09-25T08:51:53.973Z,14.56
2018-09-25T08:54:27.295Z,15.02
2018-09-25T08:57:01.426Z,14.92
2018-09-25T08:59:34.741Z,13.97
2018-09-25T09:02:10.962Z,13.33
2018-09-25T09:04:47.495Z,13.61
2018-09-25T09:07:21.224Z,14.38
2018-09-25T09:09:54.587Z,14.51
2018-09-25T09:12:27.587Z,15.35
2018-09-25T09:15:01.863Z,15.67
2018-09-25T09:17:34.811Z,16.18
2018-09-25T09:20:07.755Z,16.48
2018-09-25T09:22:45.324Z,16.66
2018-09-25T09:25:18.775Z,16.74
2018-09-25T09:27:54.413Z,15.93
2018-09-25T09:30:27.910Z,16.57
2018-09-25T09:33:07.207Z,16.79
2018-09-25T09:35:42.320Z,16.73
2018-09-25T09:38:15.399Z,16.74
2018-09-25T09:40:51.374Z,16.91
2018-09-25T09:43:27.094Z,17.18
2018-09-25T09:46:00.146Z,17.56
2018-09-25T09:48:35.551Z,17.27
2018-09-25T09:51:15.975Z,16.97
2018-09-25T09:53:50.837Z,17.06
2018-09-25T09:56:24.329Z,17.12
2018-09-25T09:58:59.905Z,16.76
2018-09-25T10:01:45.071Z,17.32
2018-09-25T10:04:19.998Z,16.45
2018-09-25T10:06:53.069Z,16.15
2018-09-25T10:09:26.377Z,15.87
2018-09-25T10:11:59.786Z,15.68
2018-09-25T10:14:32.940Z,15.69
2018-09-25T10:17:06.187Z,15.63
2018-09-25T10:19:39.464Z,14.94
2018-09-25T10:22:12.718Z,15.78
2018-09-25T10:24:47.864Z,16.36
2018-09-25T10:27:23.358Z,16.26
2018-09-25T10:30:00.590Z,15.63
2018-09-25T10:35:13.098Z,15.60
2018-09-25T10:37:46.365Z,16.29
2018-09-25T10:40:21.860Z,16.97
2018-09-25T10:42:55.268Z,16.75
2018-09-25T10:45:28.403Z,16.74
2018-09-25T10:48:01.730Z,16.95
2018-09-25T10:50:35.721Z,17.51
2018-09-25T10:53:09.311Z,17.41
2018-09-25T10:55:42.858Z,18.01
2018-09-25T10:58:15.971Z,17.69
2018-09-25T11:00:49.205Z,16.86
2018-09-25T11:03:29.524Z,15.58
2018-09-25T11:06:03.265Z,15.16
2018-09-25T11:08:38.265Z,14.83
2018-09-25T11:11:17.121Z,14.98
2018-09-25T11:13:50.373Z,15.46
2018-09-25T11:16:24.176Z,16.62
2018-09-25T11:19:01.001Z,17.07
2018-09-25T11:21:59.326Z,16.40
2018-09-25T11:24:33.944Z,14.98
2018-09-25T11:27:08.479Z,14.46
2018-09-25T11:29:47.717Z,14.25
2018-09-25T11:32:26.899Z,14.80
2018-09-25T11:35:00.076Z,15.62
2018-09-25T11:37:33.196Z,16.12
2018-09-25T11:40:07.095Z,15.36
2018-09-25T11:42:42.252Z,14.41
2018-09-25T11:45:17.598Z,13.92
2018-09-25T11:47:52.645Z,13.67
2018-09-25T11:50:29.576Z,14.19
2018-09-25T11:53:02.745Z,15.01
2018-09-25T11:55:35.680Z,15.84
2018-09-25T11:58:09.465Z,16.22
2018-09-25T12:00:47.723Z,16.60
2018-09-25T12:03:25.909Z,16.75
2018-09-25T12:05:59.464Z,16.16
2018-09-25T12:08:32.813Z,15.27
2018-09-25T12:11:06.011Z,14.50
2018-09-25T12:13:42.298Z,14.06
2018-09-25T12:16:15.871Z,14.82
2018-09-25T12:21:32.022Z,15.35
2018-09-25T12:24:06.676Z,15.56
2018-09-25T12:26:44.195Z,16.03
2018-09-25T12:29:20.738Z,16.46
2018-09-25T12:31:54.890Z,16.63
2018-09-25T12:34:30.101Z,16.57
2018-09-25T12:37:03.655Z,16.29
2018-09-25T12:39:39.047Z,16.41
2018-09-25T12:42:14.272Z,16.62
2018-09-25T12:44:49.639Z,16.96
2018-09-25T12:47:26.510Z,17.01
2018-09-25T12:50:04.885Z,16.99
2018-09-25T12:52:41.169Z,16.46
2018-09-25T12:55:14.381Z,15.81
2018-09-25T12:57:47.744Z,15.19
2018-09-25T13:00:20.676Z,14.41
2018-09-25T13:02:55.183Z,14.28
2018-09-25T13:05:32.834Z,14.05
2018-09-25T13:08:09.303Z,14.08
2018-09-25T13:10:43.049Z,14.15
2018-09-25T13:13:18.743Z,14.29
2018-09-25T13:15:52.943Z,14.73
2018-09-25T13:18:26.088Z,14.67
2018-09-25T13:21:00.935Z,14.90
2018-09-25T13:23:34.168Z,14.83
2018-09-25T13:26:08.278Z,14.53
2018-09-25T13:28:42.524Z,14.34
2018-09-25T13:31:17.204Z,14.29
2018-09-25T13:33:50.335Z,14.18
2018-09-25T13:36:25.969Z,13.92
2018-09-25T13:38:59.231Z,13.93
2018-09-25T13:41:32.409Z,14.18
2018-09-25T13:44:05.512Z,14.17
2018-09-25T13:46:38.961Z,13.84
2018-09-25T13:49:13.216Z,13.96
2018-09-25T13:51:46.252Z,13.98
2018-09-25T13:54:31.971Z,13.90
2018-09-25T13:57:15.754Z,13.61
2018-09-25T13:59:59.605Z,13.85
2018-09-25T14:02:44.749Z,14.15
2018-09-25T14:05:28.645Z,14.13
2018-09-25T14:08:13.466Z,14.14
2018-09-25T14:10:58.891Z,14.22
2018-09-25T14:13:47.511Z,14.22
2018-09-25T14:16:32.846Z,14.36
2018-09-25T14:19:18.481Z,14.13
2018-09-25T14:21:51.710Z,14.30
2018-09-25T14:24:25.057Z,14.38
2018-09-25T14:26:58.248Z,14.08
2018-09-25T14:29:31.425Z,14.07
2018-09-25T14:32:04.692Z,13.95
2018-09-25T14:34:38.058Z,13.87
2018-09-25T14:37:11.520Z,13.77
2018-09-25T14:39:45.085Z,13.58
2018-09-25T14:42:18.323Z,13.53
2018-09-25T14:44:52.323Z,13.66
2018-09-25T14:47:25.726Z,13.69
2018-09-25T14:50:01.605Z,13.53
2018-09-25T14:52:34.947Z,13.51
2018-09-25T14:55:08.419Z,13.36
2018-09-25T14:57:41.542Z,13.20
2018-09-25T15:00:14.582Z,13.13
2018-09-25T15:02:48.105Z,13.16
2018-09-25T15:05:22.363Z,13.08
2018-09-25T15:07:55.817Z,13.14
2018-09-25T15:10:29.870Z,13.14
2018-09-25T15:13:05.842Z,13.09
2018-09-25T15:15:42.905Z,13.04
2018-09-25T15:18:18.506Z,12.92
2018-09-25T15:20:53.701Z,13.00
2018-09-25T15:23:26.935Z,13.05
2018-09-25T15:26:00.707Z,12.99
2018-09-25T15:28:33.928Z,12.84
2018-09-25T15:31:07.692Z,12.85
2018-09-25T15:33:55.880Z,12.70
2018-09-25T15:36:30.844Z,12.63
2018-09-25T15:39:05.293Z,12.60
2018-09-25T15:41:39.602Z,12.57
2018-09-25T15:44:14.279Z,12.50
2018-09-25T15:46:49.670Z,12.48
2018-09-25T15:49:22.809Z,12.40
2018-09-25T15:51:56.545Z,12.45
2018-09-25T15:54:37.850Z,12.43
2018-09-25T15:57:12.087Z,12.44
2018-09-25T15:59:45.265Z,12.45
2018-09-25T16:02:18.675Z,12.40
2018-09-25T16:04:52.195Z,12.38
2018-09-25T16:07:25.304Z,12.33
2018-09-25T16:09:58.297Z,12.29
2018-09-25T16:12:31.622Z,12.27
2018-09-25T16:15:04.795Z,12.22
2018-09-25T16:17:41.370Z,12.18
2018-09-25T16:20:15.004Z,12.06
2018-09-25T16:22:52.739Z,12.02
2018-09-25T16:25:28.303Z,11.96
2018-09-25T16:28:01.547Z,11.89
2018-09-25T16:30:36.063Z,11.87
2018-09-25T16:33:09.204Z,11.83
2018-09-25T16:35:42.968Z,11.83
2018-09-25T16:38:15.998Z,11.75
2018-09-25T16:40:49.186Z,11.69
2018-09-25T16:43:22.242Z,11.58
2018-09-25T16:45:56.024Z,11.45
2018-09-25T16:48:31.821Z,11.29
2018-09-25T16:51:05.125Z,11.14
2018-09-25T16:53:38.486Z,10.93
2018-09-25T16:56:11.613Z,10.77
2018-09-25T16:58:44.735Z,10.64
2018-09-25T17:01:18.736Z,10.55
2018-09-25T17:03:56.071Z,10.45
2018-09-25T17:06:30.853Z,10.32
2018-09-25T17:09:04.332Z,10.26
2018-09-25T17:11:39.580Z,10.18
2018-09-25T17:14:12.772Z,10.03
2018-09-25T17:16:45.970Z,9.84
2018-09-25T17:19:19.543Z,9.64
2018-09-25T17:21:53.264Z,9.52
2018-09-25T17:24:26.781Z,9.46
2018-09-25T17:26:59.784Z,9.38
2018-09-25T17:29:32.876Z,9.23
2018-09-25T17:32:07.149Z,9.08
2018-09-25T17:34:47.643Z,9.01
2018-09-25T17:37:21.804Z,8.86
2018-09-25T17:39:55.171Z,8.76
2018-09-25T17:42:28.570Z,8.69
2018-09-25T17:45:02.063Z,8.54
2018-09-25T17:47:36.184Z,8.44
2018-09-25T17:50:09.925Z,8.28
2018-09-25T17:52:43.908Z,8.17
2018-09-25T17:55:23.652Z,8.06
2018-09-25T17:57:58.402Z,8.01
2018-09-25T18:00:33.448Z,7.96
2018-09-25T18:03:06.573Z,7.91
2018-09-25T18:05:39.955Z,7.82
2018-09-25T18:08:14.889Z,7.73
2018-09-25T18:10:47.964Z,7.66
2018-09-25T18:13:21.167Z,7.62
2018-09-25T18:15:54.371Z,7.60
2018-09-25T18:18:27.379Z,7.53
2018-09-25T18:21:00.372Z,7.48
2018-09-25T18:23:33.517Z,7.39
2018-09-25T18:26:06.545Z,7.29
2018-09-25T18:28:43.724Z,7.24
2018-09-25T18:31:16.666Z,7.30
2018-09-25T18:33:49.741Z,7.39
2018-09-25T18:36:22.942Z,7.36
2018-09-25T18:38:55.935Z,7.34
2018-09-25T18:41:29.167Z,7.25
2018-09-25T18:44:02.245Z,7.24
2018-09-25T18:46:35.758Z,7.26
2018-09-25T18:49:09.085Z,7.19
2018-09-25T18:51:43.256Z,7.06
2018-09-25T18:54:16.347Z,6.96
2018-09-25T18:56:50.575Z,6.91
2018-09-25T18:59:24.399Z,6.81
2018-09-25T19:01:57.587Z,6.68
2018-09-25T19:04:30.857Z,6.61
2018-09-25T19:07:05.462Z,6.54
2018-09-25T19:09:38.392Z,6.50
2018-09-25T19:12:14.831Z,6.55
2018-09-25T19:14:47.813Z,6.62
2018-09-25T19:17:20.727Z,6.74
2018-09-25T19:19:53.789Z,6.80
2018-09-25T19:22:26.911Z,6.85
2018-09-25T19:24:59.744Z,6.83
2018-09-25T19:27:32.886Z,6.77
2018-09-25T19:30:05.887Z,6.68
2018-09-25T19:32:39.563Z,6.58
2018-09-25T19:35:12.386Z,6.53
2018-09-25T19:37:45.324Z,6.48
2018-09-25T19:40:18.387Z,6.37
2018-09-25T19:42:54.952Z,6.32
2018-09-25T19:45:29.145Z,6.24
2018-09-25T19:48:01.997Z,6.22
2018-09-25T19:50:35.170Z,6.20
2018-09-25T19:53:08.358Z,6.21
2018-09-25T19:56:10.882Z,6.14
2018-09-25T19:58:45.017Z,6.10
2018-09-25T20:01:18.860Z,6.11
2018-09-25T20:03:51.936Z,6.21
2018-09-25T20:06:24.970Z,6.22
2018-09-25T20:08:58.429Z,6.19
2018-09-25T20:11:31.664Z,6.17
2018-09-25T20:14:04.599Z,6.15
2018-09-25T20:16:37.817Z,6.13
2018-09-25T20:19:11.178Z,6.08
2018-09-25T20:21:44.658Z,6.05
2018-09-25T20:24:18.019Z,6.01
2018-09-25T20:26:50.974Z,6.02
2018-09-25T20:29:26.329Z,6.06
2018-09-25T20:32:01.062Z,6.00
2018-09-25T20:34:34.368Z,5.96
2018-09-25T20:37:07.934Z,5.93
2018-09-25T20:39:43.162Z,5.86
2018-09-25T20:42:20.446Z,5.83
2018-09-25T20:44:53.627Z,5.88
2018-09-25T20:47:27.396Z,5.86
2018-09-25T20:50:01.614Z,5.83
2018-09-25T20:52:36.155Z,5.74
2018-09-25T20:55:09.448Z,5.73
2018-09-25T20:57:42.521Z,5.66
2018-09-25T21:00:21.268Z,5.66
2018-09-25T21:02:54.773Z,5.63
2018-09-25T21:05:27.734Z,5.62
2018-09-25T21:08:01.297Z,5.62
2018-09-25T21:10:34.304Z,5.64
2018-09-25T21:13:07.780Z,5.61
2018-09-25T21:15:41.004Z,5.54
2018-09-25T21:18:13.965Z,5.51
2018-09-25T21:20:46.941Z,5.52
2018-09-25T21:23:19.994Z,5.49
2018-09-25T21:25:52.934Z,5.45
2018-09-25T21:28:25.852Z,5.48
2018-09-25T21:30:59.251Z,5.54
2018-09-25T21:33:32.306Z,5.57
2018-09-25T21:36:05.267Z,5.59
2018-09-25T21:38:38.282Z,5.52
2018-09-25T21:41:11.764Z,5.51
2018-09-25T21:43:44.723Z,5.53
2018-09-25T21:46:17.850Z,5.53
2018-09-25T21:48:50.850Z,5.55
2018-09-25T21:51:23.998Z,5.57
2018-09-25T21:53:57.024Z,5.53
2018-09-25T21:56:30.555Z,5.51
2018-09-25T21:59:03.615Z,5.54
2018-09-25T22:01:36.480Z,5.52
2018-09-25T22:04:09.553Z,5.49
2018-09-25T22:06:42.467Z,5.37
2018-09-25T22:09:15.451Z,5.33
2018-09-25T22:11:48.475Z,5.34
2018-09-25T22:14:21.502Z,5.37
2018-09-25T22:16:54.940Z,5.38
2018-09-25T22:19:27.964Z,5.36
2018-09-25T22:22:01.135Z,5.34
2018-09-25T22:24:34.491Z,5.37
2018-09-25T22:27:07.451Z,5.33
2018-09-25T22:29:40.434Z,5.29
2018-09-25T22:32:23.135Z,5.30
2018-09-25T22:34:57.163Z,5.31
2018-09-25T22:37:30.078Z,5.28
2018-09-25T22:40:03.243Z,5.30
2018-09-25T22:42:38.217Z,5.31
2018-09-25T22:45:11.594Z,5.27
2018-09-25T22:47:52.800Z,5.19
2018-09-25T22:50:25.753Z,5.16
2018-09-25T22:53:01.568Z,5.19
2018-09-25T22:55:34.745Z,5.29
2018-09-25T22:58:07.802Z,5.46
2018-09-25T23:00:43.991Z,5.63
2018-09-25T23:03:25.227Z,5.73
2018-09-25T23:05:58.568Z,5.78
2018-09-25T23:08:37.813Z,5.83
2018-09-25T23:11:11.730Z,5.86
2018-09-25T23:13:44.551Z,5.86
2018-09-25T23:16:17.479Z,5.87
2018-09-25T23:18:51.433Z,5.87
2018-09-25T23:21:24.574Z,5.93
2018-09-25T23:23:57.528Z,6.03
2018-09-25T23:26:30.505Z,6.01
2018-09-25T23:29:03.530Z,6.01
2018-09-25T23:31:36.445Z,6.03
2018-09-25T23:34:09.556Z,6.05
2018-09-25T23:36:42.413Z,6.15
2018-09-25T23:39:14.972Z,6.18
2018-09-25T23:42:20.036Z,6.10
2018-09-25T23:44:54.627Z,5.99
2018-09-25T23:47:26.473Z,5.99
2018-09-25T23:50:00.796Z,6.09
2018-09-25T23:52:48.669Z,6.13
2018-09-25T23:55:23.245Z,6.09
2018-09-25T23:57:58.224Z,6.01
